sensor_id;sensor_type;location;lat;lon;timestamp;temperature;humidity
70830;SHT30;58451;51.550;7.208;2023-06-22T00:00:25;21.56;58.35
70830;SHT30;58451;51.550;7.208;2023-06-22T00:01:58;21.56;58.50
70830;SHT30;58451;51.550;7.208;2023-06-22T00:03:32;21.56;58.75
70830;SHT30;58451;51.550;7.208;2023-06-22T00:05:04;21.54;58.73
70830;SHT30;58451;51.550;7.208;2023-06-22T00:06:37;21.52;58.73
70830;SHT30;58451;51.550;7.208;2023-06-22T00:08:08;21.52;58.83
70830;SHT30;58451;51.550;7.208;2023-06-22T00:09:41;21.50;59.72
70830;SHT30;58451;51.550;7.208;2023-06-22T00:11:13;21.49;59.30
70830;SHT30;58451;51.550;7.208;2023-06-22T00:12:45;21.47;59.47
70830;SHT30;58451;51.550;7.208;2023-06-22T00:14:17;21.47;59.25
70830;SHT30;58451;51.550;7.208;2023-06-22T00:15:49;21.47;59.98
70830;SHT30;58451;51.550;7.208;2023-06-22T00:17:20;21.45;59.57
70830;SHT30;58451;51.550;7.208;2023-06-22T00:18:52;21.43;60.42
70830;SHT30;58451;51.550;7.208;2023-06-22T00:20:24;21.44;59.77
70830;SHT30;58451;51.550;7.208;2023-06-22T00:22:02;21.42;60.30
70830;SHT30;58451;51.550;7.208;2023-06-22T00:23:35;21.42;60.23
70830;SHT30;58451;51.550;7.208;2023-06-22T00:25:07;21.41;59.97
70830;SHT30;58451;51.550;7.208;2023-06-22T00:26:39;21.41;59.85
70830;SHT30;58451;51.550;7.208;2023-06-22T00:28:12;21.41;59.83
70830;SHT30;58451;51.550;7.208;2023-06-22T00:29:44;21.40;59.93
70830;SHT30;58451;51.550;7.208;2023-06-22T00:31:15;21.40;60.42
70830;SHT30;58451;51.550;7.208;2023-06-22T00:32:47;21.40;60.25
70830;SHT30;58451;51.550;7.208;2023-06-22T00:34:19;21.40;60.13
70830;SHT30;58451;51.550;7.208;2023-06-22T00:35:51;21.40;60.32
70830;SHT30;58451;51.550;7.208;2023-06-22T00:37:24;21.40;60.82
70830;SHT30;58451;51.550;7.208;2023-06-22T00:38:57;21.40;60.37
70830;SHT30;58451;51.550;7.208;2023-06-22T00:40:32;21.39;60.38
70830;SHT30;58451;51.550;7.208;2023-06-22T00:42:05;21.38;60.38
70830;SHT30;58451;51.550;7.208;2023-06-22T00:43:37;21.39;60.43
70830;SHT30;58451;51.550;7.208;2023-06-22T00:45:09;21.39;60.45
70830;SHT30;58451;51.550;7.208;2023-06-22T00:46:41;21.38;60.62
70830;SHT30;58451;51.550;7.208;2023-06-22T00:48:13;21.39;60.62
70830;SHT30;58451;51.550;7.208;2023-06-22T00:49:47;21.39;60.58
70830;SHT30;58451;51.550;7.208;2023-06-22T00:51:22;21.39;60.78
70830;SHT30;58451;51.550;7.208;2023-06-22T00:52:56;21.39;60.95
70830;SHT30;58451;51.550;7.208;2023-06-22T00:54:31;21.38;60.80
70830;SHT30;58451;51.550;7.208;2023-06-22T00:56:04;21.35;60.75
70830;SHT30;58451;51.550;7.208;2023-06-22T00:57:39;21.35;60.83
70830;SHT30;58451;51.550;7.208;2023-06-22T00:59:12;21.33;60.95
70830;SHT30;58451;51.550;7.208;2023-06-22T01:00:44;21.30;61.15
70830;SHT30;58451;51.550;7.208;2023-06-22T01:02:17;21.29;61.20
70830;SHT30;58451;51.550;7.208;2023-06-22T01:03:56;21.26;61.20
70830;SHT30;58451;51.550;7.208;2023-06-22T01:05:29;21.25;61.83
70830;SHT30;58451;51.550;7.208;2023-06-22T01:08:59;21.20;61.88
70830;SHT30;58451;51.550;7.208;2023-06-22T01:10:44;21.17;61.53
70830;SHT30;58451;51.550;7.208;2023-06-22T01:12:17;21.18;61.63
70830;SHT30;58451;51.550;7.208;2023-06-22T01:13:55;21.15;61.63
70830;SHT30;58451;51.550;7.208;2023-06-22T01:15:36;21.14;61.85
70830;SHT30;58451;51.550;7.208;2023-06-22T01:17:16;21.14;61.83
70830;SHT30;58451;51.550;7.208;2023-06-22T01:18:52;21.10;61.83
70830;SHT30;58451;51.550;7.208;2023-06-22T01:20:27;21.10;61.87
70830;SHT30;58451;51.550;7.208;2023-06-22T01:22:03;21.09;61.92
70830;SHT30;58451;51.550;7.208;2023-06-22T01:25:33;21.06;62.00
70830;SHT30;58451;51.550;7.208;2023-06-22T01:27:39;21.05;62.23
70830;SHT30;58451;51.550;7.208;2023-06-22T01:29:28;21.01;62.67
70830;SHT30;58451;51.550;7.208;2023-06-22T01:31:02;20.98;62.48
70830;SHT30;58451;51.550;7.208;2023-06-22T01:32:37;20.96;62.58
70830;SHT30;58451;51.550;7.208;2023-06-22T01:34:12;20.95;62.65
70830;SHT30;58451;51.550;7.208;2023-06-22T01:35:45;20.94;62.60
70830;SHT30;58451;51.550;7.208;2023-06-22T01:37:17;20.92;62.70
70830;SHT30;58451;51.550;7.208;2023-06-22T01:38:49;20.89;63.45
70830;SHT30;58451;51.550;7.208;2023-06-22T01:40:23;20.87;63.37
70830;SHT30;58451;51.550;7.208;2023-06-22T01:41:58;20.85;63.25
70830;SHT30;58451;51.550;7.208;2023-06-22T01:43:31;20.83;63.48
70830;SHT30;58451;51.550;7.208;2023-06-22T01:45:06;20.80;63.38
70830;SHT30;58451;51.550;7.208;2023-06-22T01:46:41;20.78;63.43
70830;SHT30;58451;51.550;7.208;2023-06-22T01:48:13;20.76;63.77
70830;SHT30;58451;51.550;7.208;2023-06-22T01:49:45;20.75;63.67
70830;SHT30;58451;51.550;7.208;2023-06-22T01:51:18;20.74;63.67
70830;SHT30;58451;51.550;7.208;2023-06-22T01:52:50;20.73;63.80
70830;SHT30;58451;51.550;7.208;2023-06-22T01:54:21;20.69;63.85
70830;SHT30;58451;51.550;7.208;2023-06-22T01:55:53;20.67;63.95
70830;SHT30;58451;51.550;7.208;2023-06-22T01:57:26;20.66;64.03
70830;SHT30;58451;51.550;7.208;2023-06-22T01:59:15;20.64;64.13
70830;SHT30;58451;51.550;7.208;2023-06-22T02:01:02;20.60;64.07
70830;SHT30;58451;51.550;7.208;2023-06-22T02:02:58;20.59;64.17
70830;SHT30;58451;51.550;7.208;2023-06-22T02:04:38;20.56;64.22
70830;SHT30;58451;51.550;7.208;2023-06-22T02:06:27;20.54;64.37
70830;SHT30;58451;51.550;7.208;2023-06-22T02:08:10;20.51;64.47
70830;SHT30;58451;51.550;7.208;2023-06-22T02:09:50;20.48;64.55
70830;SHT30;58451;51.550;7.208;2023-06-22T02:11:25;20.45;64.70
70830;SHT30;58451;51.550;7.208;2023-06-22T02:13:00;20.43;64.85
70830;SHT30;58451;51.550;7.208;2023-06-22T02:14:36;20.40;65.03
70830;SHT30;58451;51.550;7.208;2023-06-22T02:16:13;20.39;65.17
70830;SHT30;58451;51.550;7.208;2023-06-22T02:17:47;20.36;65.28
70830;SHT30;58451;51.550;7.208;2023-06-22T02:19:23;20.33;65.33
70830;SHT30;58451;51.550;7.208;2023-06-22T02:20:56;20.32;65.52
70830;SHT30;58451;51.550;7.208;2023-06-22T02:22:29;20.30;65.52
70830;SHT30;58451;51.550;7.208;2023-06-22T02:24:01;20.30;65.53
70830;SHT30;58451;51.550;7.208;2023-06-22T02:25:34;20.28;65.65
70830;SHT30;58451;51.550;7.208;2023-06-22T02:27:07;20.28;65.62
70830;SHT30;58451;51.550;7.208;2023-06-22T02:28:39;20.27;65.72
70830;SHT30;58451;51.550;7.208;2023-06-22T02:30:11;20.28;65.73
70830;SHT30;58451;51.550;7.208;2023-06-22T02:31:46;20.27;65.85
70830;SHT30;58451;51.550;7.208;2023-06-22T02:33:18;20.26;65.97
70830;SHT30;58451;51.550;7.208;2023-06-22T02:34:52;20.25;66.08
70830;SHT30;58451;51.550;7.208;2023-06-22T02:36:24;20.24;66.17
70830;SHT30;58451;51.550;7.208;2023-06-22T02:37:58;20.24;66.10
70830;SHT30;58451;51.550;7.208;2023-06-22T02:39:32;20.24;66.13
70830;SHT30;58451;51.550;7.208;2023-06-22T02:41:03;20.24;66.25
70830;SHT30;58451;51.550;7.208;2023-06-22T02:42:36;20.24;66.28
70830;SHT30;58451;51.550;7.208;2023-06-22T02:44:09;20.23;66.38
70830;SHT30;58451;51.550;7.208;2023-06-22T02:45:41;20.25;66.38
70830;SHT30;58451;51.550;7.208;2023-06-22T02:47:13;20.24;66.45
70830;SHT30;58451;51.550;7.208;2023-06-22T02:48:45;20.23;66.57
70830;SHT30;58451;51.550;7.208;2023-06-22T02:50:17;20.24;66.77
70830;SHT30;58451;51.550;7.208;2023-06-22T02:51:49;20.23;66.80
70830;SHT30;58451;51.550;7.208;2023-06-22T02:53:24;20.23;66.92
70830;SHT30;58451;51.550;7.208;2023-06-22T02:54:55;20.23;66.92
70830;SHT30;58451;51.550;7.208;2023-06-22T02:56:28;20.23;66.88
70830;SHT30;58451;51.550;7.208;2023-06-22T02:58:03;20.24;66.85
70830;SHT30;58451;51.550;7.208;2023-06-22T02:59:38;20.24;67.07
70830;SHT30;58451;51.550;7.208;2023-06-22T03:01:13;20.22;67.02
70830;SHT30;58451;51.550;7.208;2023-06-22T03:02:48;20.21;67.02
70830;SHT30;58451;51.550;7.208;2023-06-22T03:04:21;20.23;67.10
70830;SHT30;58451;51.550;7.208;2023-06-22T03:05:53;20.21;67.12
70830;SHT30;58451;51.550;7.208;2023-06-22T03:07:26;20.19;67.28
70830;SHT30;58451;51.550;7.208;2023-06-22T03:09:01;20.19;67.38
70830;SHT30;58451;51.550;7.208;2023-06-22T03:10:36;20.20;67.38
70830;SHT30;58451;51.550;7.208;2023-06-22T03:12:08;20.19;67.40
70830;SHT30;58451;51.550;7.208;2023-06-22T03:13:47;20.19;67.63
70830;SHT30;58451;51.550;7.208;2023-06-22T03:15:18;20.18;67.53
70830;SHT30;58451;51.550;7.208;2023-06-22T03:16:54;20.17;67.43
70830;SHT30;58451;51.550;7.208;2023-06-22T03:18:34;20.16;67.50
70830;SHT30;58451;51.550;7.208;2023-06-22T03:20:06;20.15;68.20
70830;SHT30;58451;51.550;7.208;2023-06-22T03:21:41;20.13;68.35
70830;SHT30;58451;51.550;7.208;2023-06-22T03:23:13;20.12;67.97
70830;SHT30;58451;51.550;7.208;2023-06-22T03:24:45;20.12;67.87
70830;SHT30;58451;51.550;7.208;2023-06-22T03:26:17;20.12;68.12
70830;SHT30;58451;51.550;7.208;2023-06-22T03:27:50;20.11;68.75
70830;SHT30;58451;51.550;7.208;2023-06-22T03:29:22;20.09;68.32
70830;SHT30;58451;51.550;7.208;2023-06-22T03:30:57;20.07;68.35
70830;SHT30;58451;51.550;7.208;2023-06-22T03:32:30;20.05;68.43
70830;SHT30;58451;51.550;7.208;2023-06-22T03:34:02;20.03;68.40
70830;SHT30;58451;51.550;7.208;2023-06-22T03:35:34;20.02;68.37
70830;SHT30;58451;51.550;7.208;2023-06-22T03:37:06;20.03;68.75
70830;SHT30;58451;51.550;7.208;2023-06-22T03:38:38;20.03;68.50
70830;SHT30;58451;51.550;7.208;2023-06-22T03:40:13;20.02;68.48
70830;SHT30;58451;51.550;7.208;2023-06-22T03:41:45;20.03;68.58
70830;SHT30;58451;51.550;7.208;2023-06-22T03:43:17;20.00;68.90
70830;SHT30;58451;51.550;7.208;2023-06-22T03:44:48;19.99;69.00
70830;SHT30;58451;51.550;7.208;2023-06-22T03:46:20;19.97;69.00
70830;SHT30;58451;51.550;7.208;2023-06-22T03:47:52;19.96;69.10
70830;SHT30;58451;51.550;7.208;2023-06-22T03:49:24;19.96;69.17
70830;SHT30;58451;51.550;7.208;2023-06-22T03:51:01;19.95;69.15
70830;SHT30;58451;51.550;7.208;2023-06-22T03:52:36;19.94;69.20
70830;SHT30;58451;51.550;7.208;2023-06-22T03:54:08;19.94;69.32
70830;SHT30;58451;51.550;7.208;2023-06-22T03:55:47;19.93;69.45
70830;SHT30;58451;51.550;7.208;2023-06-22T03:57:21;19.94;69.42
70830;SHT30;58451;51.550;7.208;2023-06-22T03:58:53;19.95;69.53
70830;SHT30;58451;51.550;7.208;2023-06-22T04:00:25;19.95;69.60
70830;SHT30;58451;51.550;7.208;2023-06-22T04:01:57;19.94;69.63
70830;SHT30;58451;51.550;7.208;2023-06-22T04:03:29;19.95;69.63
70830;SHT30;58451;51.550;7.208;2023-06-22T04:05:01;19.96;69.58
70830;SHT30;58451;51.550;7.208;2023-06-22T04:06:35;19.98;69.63
70830;SHT30;58451;51.550;7.208;2023-06-22T04:08:07;20.00;69.58
70830;SHT30;58451;51.550;7.208;2023-06-22T04:09:39;20.03;69.65
70830;SHT30;58451;51.550;7.208;2023-06-22T04:11:11;20.04;69.60
70830;SHT30;58451;51.550;7.208;2023-06-22T04:12:43;20.07;69.60
70830;SHT30;58451;51.550;7.208;2023-06-22T04:14:15;20.10;69.60
70830;SHT30;58451;51.550;7.208;2023-06-22T04:15:47;20.10;69.68
70830;SHT30;58451;51.550;7.208;2023-06-22T04:17:19;20.11;69.70
70830;SHT30;58451;51.550;7.208;2023-06-22T04:18:51;20.11;69.77
70830;SHT30;58451;51.550;7.208;2023-06-22T04:20:23;20.13;69.68
70830;SHT30;58451;51.550;7.208;2023-06-22T04:22:00;20.15;69.72
70830;SHT30;58451;51.550;7.208;2023-06-22T04:23:32;20.15;69.67
70830;SHT30;58451;51.550;7.208;2023-06-22T04:25:05;20.16;69.63
70830;SHT30;58451;51.550;7.208;2023-06-22T04:26:41;20.18;69.58
70830;SHT30;58451;51.550;7.208;2023-06-22T04:28:18;20.19;69.75
70830;SHT30;58451;51.550;7.208;2023-06-22T04:29:50;20.21;69.65
70830;SHT30;58451;51.550;7.208;2023-06-22T04:31:22;20.23;69.57
70830;SHT30;58451;51.550;7.208;2023-06-22T04:32:58;20.24;69.70
70830;SHT30;58451;51.550;7.208;2023-06-22T04:34:31;20.26;69.63
70830;SHT30;58451;51.550;7.208;2023-06-22T04:36:03;20.28;69.80
70830;SHT30;58451;51.550;7.208;2023-06-22T04:37:38;20.29;69.78
70830;SHT30;58451;51.550;7.208;2023-06-22T04:39:11;20.32;69.65
70830;SHT30;58451;51.550;7.208;2023-06-22T04:40:42;20.37;69.77
70830;SHT30;58451;51.550;7.208;2023-06-22T04:42:14;20.41;69.62
70830;SHT30;58451;51.550;7.208;2023-06-22T04:43:47;20.46;69.63
70830;SHT30;58451;51.550;7.208;2023-06-22T04:45:25;20.51;69.55
70830;SHT30;58451;51.550;7.208;2023-06-22T04:46:57;20.56;69.53
70830;SHT30;58451;51.550;7.208;2023-06-22T04:48:35;20.61;69.35
70830;SHT30;58451;51.550;7.208;2023-06-22T04:50:06;20.66;69.27
70830;SHT30;58451;51.550;7.208;2023-06-22T04:51:39;20.71;69.20
70830;SHT30;58451;51.550;7.208;2023-06-22T04:53:13;20.77;69.15
70830;SHT30;58451;51.550;7.208;2023-06-22T04:54:44;20.78;69.07
70830;SHT30;58451;51.550;7.208;2023-06-22T04:56:19;20.81;69.03
70830;SHT30;58451;51.550;7.208;2023-06-22T04:57:52;20.84;68.93
70830;SHT30;58451;51.550;7.208;2023-06-22T04:59:26;20.86;68.90
70830;SHT30;58451;51.550;7.208;2023-06-22T05:01:01;20.86;68.87
70830;SHT30;58451;51.550;7.208;2023-06-22T05:02:41;20.88;69.02
70830;SHT30;58451;51.550;7.208;2023-06-22T05:04:13;20.90;68.88
70830;SHT30;58451;51.550;7.208;2023-06-22T05:05:45;20.93;68.77
70830;SHT30;58451;51.550;7.208;2023-06-22T05:07:18;20.95;68.60
70830;SHT30;58451;51.550;7.208;2023-06-22T05:08:52;20.96;68.65
70830;SHT30;58451;51.550;7.208;2023-06-22T05:10:29;20.97;68.53
70830;SHT30;58451;51.550;7.208;2023-06-22T05:12:02;21.00;68.47
70830;SHT30;58451;51.550;7.208;2023-06-22T05:13:38;21.00;68.48
70830;SHT30;58451;51.550;7.208;2023-06-22T05:15:10;21.01;68.40
70830;SHT30;58451;51.550;7.208;2023-06-22T05:16:42;21.02;68.35
70830;SHT30;58451;51.550;7.208;2023-06-22T05:18:15;21.03;68.23
70830;SHT30;58451;51.550;7.208;2023-06-22T05:19:47;21.04;68.25
70830;SHT30;58451;51.550;7.208;2023-06-22T05:21:23;21.06;68.23
70830;SHT30;58451;51.550;7.208;2023-06-22T05:22:57;21.07;68.27
70830;SHT30;58451;51.550;7.208;2023-06-22T05:24:28;21.09;68.32
70830;SHT30;58451;51.550;7.208;2023-06-22T05:26:00;21.10;68.22
70830;SHT30;58451;51.550;7.208;2023-06-22T05:27:32;21.12;68.33
70830;SHT30;58451;51.550;7.208;2023-06-22T05:29:04;21.11;68.12
70830;SHT30;58451;51.550;7.208;2023-06-22T05:30:36;21.11;68.08
70830;SHT30;58451;51.550;7.208;2023-06-22T05:32:08;21.12;68.10
70830;SHT30;58451;51.550;7.208;2023-06-22T05:33:41;21.12;68.17
70830;SHT30;58451;51.550;7.208;2023-06-22T05:35:14;21.11;68.08
70830;SHT30;58451;51.550;7.208;2023-06-22T05:36:46;21.13;68.32
70830;SHT30;58451;51.550;7.208;2023-06-22T05:38:18;21.13;68.08
70830;SHT30;58451;51.550;7.208;2023-06-22T05:39:50;21.14;67.93
70830;SHT30;58451;51.550;7.208;2023-06-22T05:41:22;21.16;67.87
70830;SHT30;58451;51.550;7.208;2023-06-22T05:42:54;21.17;67.95
70830;SHT30;58451;51.550;7.208;2023-06-22T05:44:26;21.18;67.92
70830;SHT30;58451;51.550;7.208;2023-06-22T05:45:58;21.21;67.97
70830;SHT30;58451;51.550;7.208;2023-06-22T05:47:31;21.23;67.98
70830;SHT30;58451;51.550;7.208;2023-06-22T05:49:02;21.19;68.02
70830;SHT30;58451;51.550;7.208;2023-06-22T05:50:36;21.18;68.05
70830;SHT30;58451;51.550;7.208;2023-06-22T05:52:09;21.17;68.08
70830;SHT30;58451;51.550;7.208;2023-06-22T05:53:40;21.17;68.05
70830;SHT30;58451;51.550;7.208;2023-06-22T05:55:12;21.15;68.08
70830;SHT30;58451;51.550;7.208;2023-06-22T05:56:44;21.13;68.08
70830;SHT30;58451;51.550;7.208;2023-06-22T05:58:16;21.11;68.12
70830;SHT30;58451;51.550;7.208;2023-06-22T05:59:48;21.12;68.10
70830;SHT30;58451;51.550;7.208;2023-06-22T06:01:20;21.14;68.07
70830;SHT30;58451;51.550;7.208;2023-06-22T06:02:52;21.13;68.03
70830;SHT30;58451;51.550;7.208;2023-06-22T06:04:23;21.15;68.03
70830;SHT30;58451;51.550;7.208;2023-06-22T06:05:56;21.20;67.98
70830;SHT30;58451;51.550;7.208;2023-06-22T06:07:28;21.24;67.92
70830;SHT30;58451;51.550;7.208;2023-06-22T06:09:01;21.26;67.88
70830;SHT30;58451;51.550;7.208;2023-06-22T06:10:33;21.27;67.88
70830;SHT30;58451;51.550;7.208;2023-06-22T06:12:06;21.30;67.80
70830;SHT30;58451;51.550;7.208;2023-06-22T06:13:39;21.32;67.75
70830;SHT30;58451;51.550;7.208;2023-06-22T06:15:10;21.33;67.75
70830;SHT30;58451;51.550;7.208;2023-06-22T06:16:42;21.33;67.78
70830;SHT30;58451;51.550;7.208;2023-06-22T06:18:14;21.33;67.78
70830;SHT30;58451;51.550;7.208;2023-06-22T06:19:46;21.33;67.75
70830;SHT30;58451;51.550;7.208;2023-06-22T06:21:18;21.35;67.87
70830;SHT30;58451;51.550;7.208;2023-06-22T06:22:50;21.37;67.77
70830;SHT30;58451;51.550;7.208;2023-06-22T06:24:22;21.40;67.70
70830;SHT30;58451;51.550;7.208;2023-06-22T06:25:54;21.42;67.72
70830;SHT30;58451;51.550;7.208;2023-06-22T06:27:26;21.46;67.63
70830;SHT30;58451;51.550;7.208;2023-06-22T06:29:01;21.49;67.52
70830;SHT30;58451;51.550;7.208;2023-06-22T06:30:33;21.52;67.38
70830;SHT30;58451;51.550;7.208;2023-06-22T06:32:08;21.53;67.32
70830;SHT30;58451;51.550;7.208;2023-06-22T06:33:40;21.58;67.22
70830;SHT30;58451;51.550;7.208;2023-06-22T06:35:12;21.63;67.10
70830;SHT30;58451;51.550;7.208;2023-06-22T06:36:47;21.67;66.97
70830;SHT30;58451;51.550;7.208;2023-06-22T06:38:19;21.70;66.93
70830;SHT30;58451;51.550;7.208;2023-06-22T06:39:51;21.74;66.87
70830;SHT30;58451;51.550;7.208;2023-06-22T06:41:23;21.75;66.80
70830;SHT30;58451;51.550;7.208;2023-06-22T06:42:55;21.75;66.77
70830;SHT30;58451;51.550;7.208;2023-06-22T06:44:26;21.76;66.68
70830;SHT30;58451;51.550;7.208;2023-06-22T06:45:59;21.78;66.63
70830;SHT30;58451;51.550;7.208;2023-06-22T06:47:31;21.78;66.67
70830;SHT30;58451;51.550;7.208;2023-06-22T06:49:03;21.84;66.67
70830;SHT30;58451;51.550;7.208;2023-06-22T06:50:35;21.87;66.60
70830;SHT30;58451;51.550;7.208;2023-06-22T06:52:06;21.89;66.55
70830;SHT30;58451;51.550;7.208;2023-06-22T06:53:38;21.95;66.52
70830;SHT30;58451;51.550;7.208;2023-06-22T06:55:10;22.01;66.33
70830;SHT30;58451;51.550;7.208;2023-06-22T06:56:45;22.05;66.13
70830;SHT30;58451;51.550;7.208;2023-06-22T06:58:19;22.11;66.07
70830;SHT30;58451;51.550;7.208;2023-06-22T06:59:51;22.19;65.87
70830;SHT30;58451;51.550;7.208;2023-06-22T07:01:23;22.24;65.70
70830;SHT30;58451;51.550;7.208;2023-06-22T07:02:55;22.34;65.72
70830;SHT30;58451;51.550;7.208;2023-06-22T07:04:27;22.42;65.52
70830;SHT30;58451;51.550;7.208;2023-06-22T07:05:59;22.45;65.37
70830;SHT30;58451;51.550;7.208;2023-06-22T07:07:31;22.50;65.32
70830;SHT30;58451;51.550;7.208;2023-06-22T07:09:07;22.56;65.30
70830;SHT30;58451;51.550;7.208;2023-06-22T07:10:39;22.62;65.15
70830;SHT30;58451;51.550;7.208;2023-06-22T07:12:11;22.67;65.03
70830;SHT30;58451;51.550;7.208;2023-06-22T07:13:43;22.69;64.87
70830;SHT30;58451;51.550;7.208;2023-06-22T07:15:15;22.70;64.75
70830;SHT30;58451;51.550;7.208;2023-06-22T07:16:47;22.71;64.60
70830;SHT30;58451;51.550;7.208;2023-06-22T07:18:18;22.69;64.57
70830;SHT30;58451;51.550;7.208;2023-06-22T07:19:50;22.70;64.37
70830;SHT30;58451;51.550;7.208;2023-06-22T07:21:22;22.67;64.33
70830;SHT30;58451;51.550;7.208;2023-06-22T07:22:54;22.68;64.35
70830;SHT30;58451;51.550;7.208;2023-06-22T07:24:26;22.72;64.23
70830;SHT30;58451;51.550;7.208;2023-06-22T07:25:58;22.73;64.15
70830;SHT30;58451;51.550;7.208;2023-06-22T07:27:33;22.74;64.18
70830;SHT30;58451;51.550;7.208;2023-06-22T07:29:08;22.78;64.18
70830;SHT30;58451;51.550;7.208;2023-06-22T07:30:40;22.84;64.12
70830;SHT30;58451;51.550;7.208;2023-06-22T07:32:12;22.88;63.92
70830;SHT30;58451;51.550;7.208;2023-06-22T07:33:44;22.87;63.85
70830;SHT30;58451;51.550;7.208;2023-06-22T07:35:16;22.91;63.78
70830;SHT30;58451;51.550;7.208;2023-06-22T07:36:48;22.92;63.70
70830;SHT30;58451;51.550;7.208;2023-06-22T07:38:19;22.94;63.60
70830;SHT30;58451;51.550;7.208;2023-06-22T07:39:51;22.95;63.60
70830;SHT30;58451;51.550;7.208;2023-06-22T07:41:25;22.95;63.63
70830;SHT30;58451;51.550;7.208;2023-06-22T07:42:57;22.98;63.67
70830;SHT30;58451;51.550;7.208;2023-06-22T07:44:28;23.05;63.57
70830;SHT30;58451;51.550;7.208;2023-06-22T07:46:00;23.10;63.50
70830;SHT30;58451;51.550;7.208;2023-06-22T07:47:32;23.12;63.45
70830;SHT30;58451;51.550;7.208;2023-06-22T07:49:06;23.19;63.40
70830;SHT30;58451;51.550;7.208;2023-06-22T07:50:39;23.28;63.25
70830;SHT30;58451;51.550;7.208;2023-06-22T07:52:11;23.34;63.20
70830;SHT30;58451;51.550;7.208;2023-06-22T07:53:43;23.42;63.15
70830;SHT30;58451;51.550;7.208;2023-06-22T07:55:15;23.54;63.13
70830;SHT30;58451;51.550;7.208;2023-06-22T07:56:47;23.71;63.00
70830;SHT30;58451;51.550;7.208;2023-06-22T07:58:19;23.89;63.03
70830;SHT30;58451;51.550;7.208;2023-06-22T07:59:52;24.05;62.70
70830;SHT30;58451;51.550;7.208;2023-06-22T08:01:24;24.18;62.40
70830;SHT30;58451;51.550;7.208;2023-06-22T08:02:56;24.26;62.57
70830;SHT30;58451;51.550;7.208;2023-06-22T08:04:28;24.35;62.55
70830;SHT30;58451;51.550;7.208;2023-06-22T08:06:00;24.38;62.40
70830;SHT30;58451;51.550;7.208;2023-06-22T08:07:31;24.42;62.35
70830;SHT30;58451;51.550;7.208;2023-06-22T08:09:04;24.49;62.20
70830;SHT30;58451;51.550;7.208;2023-06-22T08:10:36;24.57;62.05
70830;SHT30;58451;51.550;7.208;2023-06-22T08:12:08;24.66;61.47
70830;SHT30;58451;51.550;7.208;2023-06-22T08:13:40;24.70;61.00
70830;SHT30;58451;51.550;7.208;2023-06-22T08:15:12;24.72;61.17
70830;SHT30;58451;51.550;7.208;2023-06-22T08:16:44;24.81;60.98
70830;SHT30;58451;51.550;7.208;2023-06-22T08:18:19;24.86;60.93
70830;SHT30;58451;51.550;7.208;2023-06-22T08:19:51;24.92;60.83
70830;SHT30;58451;51.550;7.208;2023-06-22T08:21:23;24.94;60.80
70830;SHT30;58451;51.550;7.208;2023-06-22T08:22:55;24.99;60.83
70830;SHT30;58451;51.550;7.208;2023-06-22T08:24:29;25.01;60.73
70830;SHT30;58451;51.550;7.208;2023-06-22T08:26:02;25.07;61.02
70830;SHT30;58451;51.550;7.208;2023-06-22T08:27:33;25.15;60.62
70830;SHT30;58451;51.550;7.208;2023-06-22T08:29:05;25.18;60.75
70830;SHT30;58451;51.550;7.208;2023-06-22T08:30:37;25.24;60.77
70830;SHT30;58451;51.550;7.208;2023-06-22T08:32:09;25.30;60.52
70830;SHT30;58451;51.550;7.208;2023-06-22T08:33:41;25.35;60.37
70830;SHT30;58451;51.550;7.208;2023-06-22T08:35:19;25.38;60.33
70830;SHT30;58451;51.550;7.208;2023-06-22T08:36:52;25.47;59.88
70830;SHT30;58451;51.550;7.208;2023-06-22T08:38:24;25.51;59.80
70830;SHT30;58451;51.550;7.208;2023-06-22T08:39:59;25.59;59.97
70830;SHT30;58451;51.550;7.208;2023-06-22T08:41:32;25.72;59.83
70830;SHT30;58451;51.550;7.208;2023-06-22T08:43:04;25.86;59.00
70830;SHT30;58451;51.550;7.208;2023-06-22T08:44:36;25.93;58.98
70830;SHT30;58451;51.550;7.208;2023-06-22T08:46:08;26.00;58.92
70830;SHT30;58451;51.550;7.208;2023-06-22T08:47:40;26.05;58.70
70830;SHT30;58451;51.550;7.208;2023-06-22T08:49:13;26.12;58.60
70830;SHT30;58451;51.550;7.208;2023-06-22T08:50:45;26.18;57.95
70830;SHT30;58451;51.550;7.208;2023-06-22T08:52:17;26.18;57.98
70830;SHT30;58451;51.550;7.208;2023-06-22T08:53:51;26.18;57.80
70830;SHT30;58451;51.550;7.208;2023-06-22T08:55:23;26.29;57.80
70830;SHT30;58451;51.550;7.208;2023-06-22T08:56:54;26.37;57.55
70830;SHT30;58451;51.550;7.208;2023-06-22T08:58:26;26.42;57.27
70830;SHT30;58451;51.550;7.208;2023-06-22T08:59:58;26.44;57.05
70830;SHT30;58451;51.550;7.208;2023-06-22T09:01:31;26.40;57.18
70830;SHT30;58451;51.550;7.208;2023-06-22T09:03:02;26.43;57.05
70830;SHT30;58451;51.550;7.208;2023-06-22T09:04:35;26.43;57.40
70830;SHT30;58451;51.550;7.208;2023-06-22T09:06:07;26.46;57.32
70830;SHT30;58451;51.550;7.208;2023-06-22T09:07:40;26.47;57.32
70830;SHT30;58451;51.550;7.208;2023-06-22T09:09:13;26.54;57.27
70830;SHT30;58451;51.550;7.208;2023-06-22T09:10:45;26.59;57.00
70830;SHT30;58451;51.550;7.208;2023-06-22T09:12:18;26.56;57.02
70830;SHT30;58451;51.550;7.208;2023-06-22T09:13:54;26.53;57.22
70830;SHT30;58451;51.550;7.208;2023-06-22T09:15:26;26.56;57.40
70830;SHT30;58451;51.550;7.208;2023-06-22T09:16:59;26.63;57.42
70830;SHT30;58451;51.550;7.208;2023-06-22T09:18:31;26.75;57.45
70830;SHT30;58451;51.550;7.208;2023-06-22T09:20:03;26.88;57.30
70830;SHT30;58451;51.550;7.208;2023-06-22T09:21:38;26.99;57.00
70830;SHT30;58451;51.550;7.208;2023-06-22T09:23:10;27.07;56.80
70830;SHT30;58451;51.550;7.208;2023-06-22T09:24:42;27.13;56.60
70830;SHT30;58451;51.550;7.208;2023-06-22T09:26:14;27.20;56.23
70830;SHT30;58451;51.550;7.208;2023-06-22T09:27:46;27.28;56.07
70830;SHT30;58451;51.550;7.208;2023-06-22T09:29:19;27.35;55.87
70830;SHT30;58451;51.550;7.208;2023-06-22T09:30:51;27.38;55.40
70830;SHT30;58451;51.550;7.208;2023-06-22T09:32:23;27.34;55.63
70830;SHT30;58451;51.550;7.208;2023-06-22T09:33:55;27.37;55.67
70830;SHT30;58451;51.550;7.208;2023-06-22T09:35:27;27.34;55.15
70830;SHT30;58451;51.550;7.208;2023-06-22T09:36:58;27.25;55.25
70830;SHT30;58451;51.550;7.208;2023-06-22T09:38:34;27.14;55.52
70830;SHT30;58451;51.550;7.208;2023-06-22T09:40:09;27.05;55.82
70830;SHT30;58451;51.550;7.208;2023-06-22T09:41:42;27.02;56.08
70830;SHT30;58451;51.550;7.208;2023-06-22T09:43:14;27.05;55.98
70830;SHT30;58451;51.550;7.208;2023-06-22T09:44:46;27.09;56.08
70830;SHT30;58451;51.550;7.208;2023-06-22T09:46:18;27.17;55.85
70830;SHT30;58451;51.550;7.208;2023-06-22T09:47:53;27.25;55.57
70830;SHT30;58451;51.550;7.208;2023-06-22T09:49:25;27.34;55.52
70830;SHT30;58451;51.550;7.208;2023-06-22T09:51:16;27.55;55.35
70830;SHT30;58451;51.550;7.208;2023-06-22T09:52:50;27.69;54.95